Time;durP1;ratioP1;P1;durP2;ratioP2;P2;SDS_P1;SDS_P2;PMS_P1;PMS_P2;Temp;Humidity;BMP_temperature;BMP_pressure;BME280_temperature;BME280_humidity;BME280_pressure;Samples;Min_cycle;Max_cycle;Signal;HPM_P1;HPM_P2
2021/06/01 00:00:13;;;;;;;;;3.00;3.00;;;;;19.38;31.59;101032.06;5068748;27;45260;-60
2021/06/01 00:02:38;;;;;;;;;6.00;6.00;;;;;19.36;31.74;101040.13;5059373;28;46309;-60
2021/06/01 00:05:06;;;;;;;;;4.75;4.75;;;;;19.22;31.92;101018.56;5059642;28;45236;-60
2021/06/01 00:07:31;;;;;;;;;4.25;4.25;;;;;19.27;31.84;101030.75;5059481;28;45307;-61
2021/06/01 00:09:57;;;;;;;;;6.75;5.50;;;;;19.27;31.88;101032.53;5068174;28;45255;-61
2021/06/01 00:12:23;;;;;;;;;5.50;4.50;;;;;19.23;31.88;101030.97;5063147;27;45490;-61
2021/06/01 00:14:48;;;;;;;;;4.50;4.50;;;;;19.20;31.76;101025.78;5070071;27;45336;-61
2021/06/01 00:17:13;;;;;;;;;7.50;5.75;;;;;19.20;31.60;101036.44;5075032;28;45465;-61
2021/06/01 00:19:39;;;;;;;;;4.00;4.00;;;;;19.17;31.94;101037.44;5059504;28;45503;-61
2021/06/01 00:22:04;;;;;;;;;5.00;5.00;;;;;19.09;31.96;101023.59;5059040;28;45516;-60
2021/06/01 00:24:30;;;;;;;;;6.25;4.75;;;;;19.09;32.01;101027.13;5059396;28;45227;-60
2021/06/01 00:26:55;;;;;;;;;4.75;4.75;;;;;19.08;32.16;101022.75;5059364;28;45788;-60
2021/06/01 00:29:20;;;;;;;;;6.50;5.50;;;;;19.10;32.08;101033.31;5076443;28;45317;-61
2021/06/01 00:31:46;;;;;;;;;7.50;4.75;;;;;19.07;32.23;101026.34;5062822;27;46163;-60
2021/06/01 00:34:12;;;;;;;;;6.00;6.00;;;;;19.06;32.47;101029.09;5059371;28;45227;-60
2021/06/01 00:36:38;;;;;;;;;5.00;4.00;;;;;19.03;32.13;101023.88;5059262;28;45221;-60
2021/06/01 00:39:06;;;;;;;;;5.00;5.00;;;;;18.88;32.14;101004.97;5057898;28;45512;-60
2021/06/01 00:41:32;;;;;;;;;3.50;3.00;;;;;18.98;32.02;101021.41;5072957;27;45333;-61
2021/06/01 00:43:58;;;;;;;;;4.75;4.75;;;;;18.95;32.22;101019.75;5058662;28;45304;-61
2021/06/01 00:46:23;;;;;;;;;5.50;5.00;;;;;18.93;31.99;101018.97;5059094;28;45383;-60
2021/06/01 00:48:49;;;;;;;;;4.75;4.00;;;;;18.85;31.75;101005.09;5074710;28;45381;-61
2021/06/01 00:51:14;;;;;;;;;6.25;5.50;;;;;18.87;31.85;101010.34;5059115;28;46618;-61
2021/06/01 00:53:40;;;;;;;;;8.00;5.25;;;;;18.92;32.22;101013.72;5062402;28;45390;-61
2021/06/01 00:56:07;;;;;;;;;3.75;3.00;;;;;18.83;31.88;101005.16;5062491;28;45197;-61
2021/06/01 00:58:34;;;;;;;;;5.00;5.00;;;;;18.88;32.13;101020.94;5062146;28;45276;-61
2021/06/01 01:03:28;;;;;;;;;3.75;3.75;;;;;18.74;32.16;100981.63;5062215;28;45305;-61
2021/06/01 01:06:02;;;;;;;;;8.00;6.00;;;;;18.82;32.10;101014.09;5062271;28;45362;-60
2021/06/01 01:08:52;;;;;;;;;6.33;4.33;;;;;18.81;32.07;101011.50;5062093;28;45335;-60
2021/06/01 01:11:59;;;;;;;;;7.25;5.75;;;;;18.77;32.03;101001.94;5072698;28;46130;-61
2021/06/01 01:14:33;;;;;;;;;2.00;2.00;;;;;18.71;32.06;101000.38;5075189;28;45307;-61
2021/06/01 01:17:02;;;;;;;;;3.75;3.75;;;;;18.69;32.27;101004.91;5062064;27;45286;-61
2021/06/01 01:20:06;;;;;;;;;4.00;4.00;;;;;18.64;31.78;100988.28;5077456;27;45324;-61
2021/06/01 01:22:42;;;;;;;;;3.50;3.25;;;;;18.65;32.20;101004.19;5068761;28;46144;-61
2021/06/01 01:25:33;;;;;;;;;4.50;4.25;;;;;18.63;32.38;100990.09;5067217;27;45567;-60
2021/06/01 01:27:59;;;;;;;;;6.25;4.00;;;;;18.61;31.95;100991.09;5067858;28;45343;-61
2021/06/01 01:30:30;;;;;;;;;5.50;5.50;;;;;18.59;32.32;100995.59;5076569;27;45621;-60
2021/06/01 01:32:58;;;;;;;;;6.25;5.00;;;;;18.56;32.38;100993.94;5061741;28;45386;-61
2021/06/01 01:35:34;;;;;;;;;3.00;3.00;;;;;18.54;32.22;100993.16;5061708;28;45231;-61
2021/06/01 01:38:00;;;;;;;;;5.25;5.25;;;;;18.53;32.31;100991.44;5061777;28;45270;-61
2021/06/01 01:40:30;;;;;;;;;4.25;3.25;;;;;18.52;32.55;100997.69;5070106;28;45285;-61
2021/06/01 01:43:06;;;;;;;;;3.75;3.75;;;;;18.44;32.79;100978.50;5066713;27;45176;-61
2021/06/01 01:45:36;;;;;;;;;6.00;6.00;;;;;18.38;32.42;100973.44;5061403;28;45286;-61
2021/06/01 01:51:00;;;;;;;;;3.50;2.50;;;;;18.32;32.79;100979.91;5061406;28;45251;-61
2021/06/01 01:53:27;;;;;;;;;5.00;4.00;;;;;18.29;33.03;100978.25;5076880;28;48108;-61
2021/06/01 01:55:53;;;;;;;;;6.25;6.25;;;;;18.27;33.21;100976.59;5061461;28;45169;-61
2021/06/01 01:58:20;;;;;;;;;3.50;3.50;;;;;18.26;33.20;100974.84;5061153;28;45260;-61
2021/06/01 02:00:47;;;;;;;;;5.75;5.75;;;;;18.22;33.43;100973.25;5061395;28;45396;-61
2021/06/01 02:03:13;;;;;;;;;5.00;5.00;;;;;18.12;33.28;100965.66;5060840;28;46154;-61
2021/06/01 02:05:40;;;;;;;;;4.00;3.25;;;;;18.15;33.39;100970.84;5076824;28;45327;-61
2021/06/01 02:08:10;;;;;;;;;3.75;3.75;;;;;18.10;33.51;100967.53;5061374;28;45291;-61
2021/06/01 02:10:35;;;;;;;;;4.00;4.00;;;;;18.09;33.88;100960.47;5071982;28;45406;-62
2021/06/01 02:13:01;;;;;;;;;5.50;4.00;;;;;18.04;33.85;100962.47;5069438;28;45371;-61
2021/06/01 02:15:26;;;;;;;;;6.00;6.00;;;;;18.05;34.14;100969.53;5065892;28;45249;-62
2021/06/01 02:17:51;;;;;;;;;6.00;4.75;;;;;18.01;33.95;100974.09;5061487;28;45417;-61
2021/06/01 02:20:17;;;;;;;;;3.25;3.25;;;;;17.96;34.15;100967.22;5060852;28;45291;-61
2021/06/01 02:25:39;;;;;;;;;5.25;2.00;;;;;17.91;34.42;100970.06;5060954;28;45311;-61
2021/06/01 02:28:22;;;;;;;;;5.25;5.25;;;;;17.86;34.28;100962.28;5067791;28;45278;-60
2021/06/01 02:30:54;;;;;;;;;9.50;6.50;;;;;17.81;34.46;100974.88;5069448;28;45414;-61
2021/06/01 02:33:23;;;;;;;;;4.50;4.50;;;;;17.76;34.95;100965.34;5067348;28;45286;-61
2021/06/01 02:35:49;;;;;;;;;5.00;5.00;;;;;17.65;34.75;100958.69;5081082;28;45434;-60
2021/06/01 02:38:16;;;;;;;;;7.00;5.00;;;;;17.66;34.69;100967.50;5064184;27;45185;-60
2021/06/01 02:40:44;;;;;;;;;5.00;5.00;;;;;17.65;34.88;100964.00;5061417;28;45236;-61
2021/06/01 02:43:12;;;;;;;;;7.25;6.50;;;;;17.62;35.00;100956.16;5060415;28;46393;-60
2021/06/01 02:45:43;;;;;;;;;8.25;6.25;;;;;17.59;34.83;100952.78;5060430;28;45248;-60
2021/06/01 02:48:12;;;;;;;;;5.00;5.00;;;;;17.58;35.11;100951.03;5060603;28;45160;-60
2021/06/01 02:50:40;;;;;;;;;5.75;5.75;;;;;17.56;35.33;100953.75;5060513;28;45343;-60
2021/06/01 02:53:06;;;;;;;;;6.25;6.00;;;;;17.52;35.60;100947.69;5060309;28;45304;-61
2021/06/01 02:55:31;;;;;;;;;6.50;6.50;;;;;17.49;36.15;100950.47;5060555;28;45339;-60
2021/06/01 02:57:57;;;;;;;;;6.75;6.75;;;;;17.44;35.88;100939.16;5060474;28;45231;-61
2021/06/01 03:00:25;;;;;;;;;5.75;5.00;;;;;17.46;36.21;100950.59;5075869;28;45483;-61
2021/06/01 03:02:53;;;;;;;;;6.25;6.25;;;;;17.45;36.60;100950.66;5058980;28;46038;-61
2021/06/01 03:05:20;;;;;;;;;4.50;4.50;;;;;17.44;36.60;100948.94;5060276;28;45451;-61
2021/06/01 03:07:53;;;;;;;;;6.50;6.50;;;;;17.38;36.16;100939.41;5060467;28;45319;-59
2021/06/01 03:10:20;;;;;;;;;8.75;6.50;;;;;17.39;36.35;100943.78;5070245;28;45465;-60
2021/06/01 03:12:50;;;;;;;;;7.25;6.50;;;;;17.38;36.30;100942.94;5059860;28;46103;-60
2021/06/01 03:15:15;;;;;;;;;5.75;5.75;;;;;17.34;36.16;100940.44;5059147;28;45530;-61
2021/06/01 03:17:41;;;;;;;;;6.00;6.00;;;;;17.30;36.18;100937.03;5066933;28;45327;-61
2021/06/01 03:20:07;;;;;;;;;6.00;6.00;;;;;17.34;36.56;100940.44;5080422;28;45400;-62
2021/06/01 03:22:33;;;;;;;;;5.75;5.75;;;;;17.18;36.41;100917.16;5060228;28;45330;-61
2021/06/01 03:24:58;;;;;;;;;9.50;6.25;;;;;17.28;36.54;100935.38;5059942;28;45394;-61
2021/06/01 03:27:24;;;;;;;;;5.50;5.50;;;;;17.15;36.61;100916.41;5061215;28;45359;-61
2021/06/01 03:29:50;;;;;;;;;9.50;8.50;;;;;17.25;37.15;100933.72;5079809;27;45245;-61
2021/06/01 03:32:15;;;;;;;;;10.00;6.00;;;;;17.25;37.01;100941.69;5067048;28;46226;-61
2021/06/01 03:34:40;;;;;;;;;5.50;5.50;;;;;17.17;36.84;100930.50;5079907;28;45215;-61
2021/06/01 03:37:06;;;;;;;;;10.00;6.50;;;;;17.18;37.11;100942.81;5060193;28;45522;-61
2021/06/01 03:39:32;;;;;;;;;4.50;4.50;;;;;17.13;37.07;100950.09;5060945;28;45227;-60
2021/06/01 03:41:57;;;;;;;;;6.00;6.00;;;;;17.09;37.30;100941.38;5072909;27;46952;-61
2021/06/01 03:44:23;;;;;;;;;7.50;7.50;;;;;17.09;36.93;100938.72;5059813;28;45359;-61
2021/06/01 03:46:48;;;;;;;;;7.00;6.00;;;;;17.08;37.27;100942.34;5060044;28;45267;-61
2021/06/01 03:49:14;;;;;;;;;8.00;6.50;;;;;17.02;37.02;100930.16;5073386;28;45223;-60
2021/06/01 03:51:39;;;;;;;;;5.50;5.50;;;;;17.03;37.12;100938.97;5079977;28;45991;-60
2021/06/01 03:54:04;;;;;;;;;6.75;5.75;;;;;16.98;37.09;100932.97;5066231;27;45236;-59
2021/06/01 03:56:32;;;;;;;;;4.75;4.50;;;;;16.97;37.38;100933.91;5059957;28;45339;-60
2021/06/01 03:58:58;;;;;;;;;7.00;7.00;;;;;16.93;37.73;100935.81;5059423;28;45436;-60
2021/06/01 04:01:23;;;;;;;;;11.75;10.00;;;;;16.97;37.93;100933.91;5059526;28;46281;-60
2021/06/01 04:03:49;;;;;;;;;10.00;8.00;;;;;16.96;37.74;100934.84;5059413;28;45257;-60
2021/06/01 04:06:14;;;;;;;;;6.75;6.75;;;;;16.95;37.63;100933.09;5059806;28;45299;-60
2021/06/01 04:08:40;;;;;;;;;8.00;8.00;;;;;16.90;38.11;100944.72;5059492;28;45448;-60
2021/06/01 04:11:06;;;;;;;;;5.00;5.00;;;;;16.90;38.26;100942.09;5070070;28;46573;-60
2021/06/01 04:13:32;;;;;;;;;7.25;7.25;;;;;16.87;38.54;100938.66;5071769;28;45240;-61
2021/06/01 04:15:57;;;;;;;;;5.75;5.50;;;;;16.89;38.35;100944.75;5060417;27;45422;-60
2021/06/01 04:18:23;;;;;;;;;7.00;6.25;;;;;16.89;38.30;100943.00;5059448;28;45229;-61
2021/06/01 04:20:49;;;;;;;;;8.25;6.25;;;;;16.84;38.78;100934.34;5059115;28;45170;-60
2021/06/01 04:23:14;;;;;;;;;6.75;6.75;;;;;16.89;38.76;100939.47;5058086;28;45838;-61
2021/06/01 04:25:40;;;;;;;;;15.50;13.75;;;;;16.89;38.30;100934.16;5060248;28;45288;-60
2021/06/01 04:28:07;;;;;;;;;8.75;6.25;;;;;16.87;39.01;100939.53;5064987;28;45318;-61
2021/06/01 04:30:33;;;;;;;;;9.00;7.25;;;;;16.86;38.94;100927.16;5061155;28;47475;-61
2021/06/01 04:32:59;;;;;;;;;9.25;8.00;;;;;16.87;38.71;100928.91;5062807;28;45445;-61
2021/06/01 04:35:25;;;;;;;;;7.00;6.50;;;;;16.89;38.71;100931.50;5078400;28;45269;-61
2021/06/01 04:37:51;;;;;;;;;6.50;6.50;;;;;16.88;38.49;100925.34;5062960;28;45239;-61
2021/06/01 04:40:16;;;;;;;;;7.25;6.50;;;;;16.89;38.83;100928.84;5069790;28;45323;-61
2021/06/01 04:42:42;;;;;;;;;14.00;12.75;;;;;16.78;38.83;100910.69;5069515;27;45375;-61
2021/06/01 04:45:08;;;;;;;;;6.25;6.25;;;;;16.89;38.65;100928.84;5062637;28;45164;-61
2021/06/01 04:47:34;;;;;;;;;10.75;10.75;;;;;16.88;39.33;100925.34;5062649;28;45234;-61
2021/06/01 04:49:59;;;;;;;;;14.50;14.25;;;;;16.93;38.82;100926.97;5077862;28;47556;-60
2021/06/01 04:52:25;;;;;;;;;9.75;9.75;;;;;16.94;39.25;100926.06;5062580;28;45318;-61
2021/06/01 04:54:50;;;;;;;;;8.00;7.00;;;;;16.89;39.03;100918.22;5062579;28;45346;-61
2021/06/01 04:57:16;;;;;;;;;10.25;8.75;;;;;16.95;39.61;100925.13;5062448;28;45307;-61
2021/06/01 04:59:41;;;;;;;;;8.00;7.00;;;;;16.96;39.22;100922.41;5062135;27;45455;-61
2021/06/01 05:02:07;;;;;;;;;9.00;8.50;;;;;16.98;39.68;100919.69;5062197;28;45236;-61
2021/06/01 05:04:32;;;;;;;;;7.00;7.00;;;;;17.02;38.92;100921.34;5062580;28;45256;-61
2021/06/01 05:06:59;;;;;;;;;7.50;6.25;;;;;16.97;39.12;100907.38;5062218;28;45822;-61
2021/06/01 05:09:25;;;;;;;;;8.00;5.75;;;;;17.03;39.59;100912.41;5066252;28;46014;-61
2021/06/01 05:11:50;;;;;;;;;9.00;9.00;;;;;17.02;39.41;100910.72;5068016;27;45252;-61
2021/06/01 05:14:16;;;;;;;;;6.00;6.00;;;;;17.02;39.29;100916.88;5075284;28;45799;-61
2021/06/01 05:16:41;;;;;;;;;8.50;6.75;;;;;17.02;38.97;100911.56;5077691;28;45534;-61
2021/06/01 05:19:07;;;;;;;;;6.25;6.25;;;;;17.06;39.38;100914.97;5077376;27;46411;-61
2021/06/01 05:21:33;;;;;;;;;7.00;6.75;;;;;17.08;39.26;100910.47;5074426;28;45247;-61
2021/06/01 05:23:58;;;;;;;;;9.00;7.50;;;;;17.10;38.90;100902.44;5076587;28;45480;-61
2021/06/01 05:26:24;;;;;;;;;12.00;8.75;;;;;17.13;39.43;100904.97;5077532;27;45580;-61
2021/06/01 05:28:49;;;;;;;;;9.25;8.00;;;;;17.12;39.14;100892.63;5080144;28;46168;-61
2021/06/01 05:34:00;;;;;;;;;7.00;7.00;;;;;17.23;39.08;100906.34;5069037;28;45302;-64
2021/06/01 05:36:26;;;;;;;;;7.25;5.75;;;;;17.25;39.46;100909.81;5066688;27;45397;-62
2021/06/01 05:38:52;;;;;;;;;7.00;7.00;;;;;17.31;39.31;100909.56;5060981;28;46313;-51
2021/06/01 05:41:18;;;;;;;;;13.00;10.75;;;;;17.34;39.31;100913.88;5064000;28;45335;-51
2021/06/01 05:43:43;;;;;;;;;9.50;8.25;;;;;17.35;39.03;100899.69;5072981;28;45493;-57
2021/06/01 05:46:09;;;;;;;;;9.00;9.00;;;;;17.39;39.41;100903.94;5061508;28;45266;-50
2021/06/01 05:48:35;;;;;;;;;8.50;7.75;;;;;17.43;39.34;100908.19;5061518;28;46467;-49
2021/06/01 05:51:01;;;;;;;;;7.75;6.75;;;;;17.45;39.49;100901.03;5061389;28;45279;-47
2021/06/01 05:53:27;;;;;;;;;9.00;8.50;;;;;17.52;39.12;100906.97;5061622;28;45295;-50
2021/06/01 05:55:53;;;;;;;;;7.00;7.00;;;;;17.57;39.31;100896.16;5061472;28;45288;-47
2021/06/01 05:58:18;;;;;;;;;7.00;7.00;;;;;17.57;39.15;100894.34;5060967;28;46323;-52
2021/06/01 06:00:44;;;;;;;;;5.50;5.50;;;;;17.57;39.11;100889.03;5061169;28;45205;-49
2021/06/01 06:03:10;;;;;;;;;6.75;6.75;;;;;17.68;38.80;100893.91;5061474;28;45404;-51
2021/06/01 06:05:35;;;;;;;;;7.25;6.75;;;;;17.74;39.08;100898.13;5061227;28;45350;-49
2021/06/01 06:08:12;;;;;;;;;9.25;8.25;;;;;17.77;38.65;100893.53;5061449;28;45321;-48
2021/06/01 06:10:38;;;;;;;;;7.00;7.00;;;;;17.80;38.67;100893.41;5071100;28;45593;-50
2021/06/01 06:13:04;;;;;;;;;8.00;7.25;;;;;17.83;38.46;100890.59;5069813;28;45485;-52
2021/06/01 06:15:30;;;;;;;;;8.75;8.75;;;;;17.90;38.98;100895.66;5065548;27;45240;-51
2021/06/01 06:18:17;;;;;;;;;10.50;9.75;;;;;17.95;38.74;100891.94;5061058;28;46556;-53
2021/06/01 06:20:42;;;;;;;;;13.00;10.75;;;;;18.01;38.48;100898.78;5060858;28;45246;-54
2021/06/01 06:23:07;;;;;;;;;9.00;8.75;;;;;18.07;38.43;100895.00;5061095;28;45277;-54
2021/06/01 06:25:33;;;;;;;;;10.75;9.75;;;;;18.12;38.64;100895.66;5076462;28;45476;-58
2021/06/01 06:27:58;;;;;;;;;12.75;10.00;;;;;18.15;38.53;100893.72;5066614;28;46323;-57
2021/06/01 06:30:24;;;;;;;;;9.50;8.50;;;;;18.17;38.54;100885.69;5075890;27;45351;-57
2021/06/01 06:32:50;;;;;;;;;10.50;9.75;;;;;18.27;38.78;100886.16;5060986;28;45452;-57
2021/06/01 06:35:16;;;;;;;;;9.75;9.00;;;;;18.33;38.72;100884.06;5060753;28;45315;-57
2021/06/01 06:37:41;;;;;;;;;10.25;9.75;;;;;18.37;37.95;100879.47;5060725;28;45909;-58
2021/06/01 06:40:09;;;;;;;;;9.75;7.00;;;;;18.41;38.26;100889.03;5066713;28;45348;-58
2021/06/01 06:42:36;;;;;;;;;6.50;5.75;;;;;18.45;38.23;100885.34;5084426;27;45264;-58
2021/06/01 06:45:02;;;;;;;;;5.00;5.00;;;;;18.48;38.02;100885.19;5060375;28;45245;-58
2021/06/01 06:47:40;;;;;;;;;6.50;6.50;;;;;18.51;37.89;100885.06;5076107;28;47497;-58
2021/06/01 06:50:11;;;;;;;;;9.50;8.00;;;;;18.55;37.46;100877.78;5078352;28;45915;-58
2021/06/01 06:52:37;;;;;;;;;9.25;6.75;;;;;18.63;37.87;100883.63;5065604;28;45235;-58
2021/06/01 06:55:08;;;;;;;;;6.00;5.00;;;;;18.63;37.61;100875.66;5060478;27;45290;-58
2021/06/01 06:57:34;;;;;;;;;7.50;6.00;;;;;18.75;37.57;100882.19;5075833;28;46953;-58
2021/06/01 07:00:00;;;;;;;;;7.75;6.25;;;;;18.79;37.58;100878.47;5060121;28;45335;-57
2021/06/01 07:02:28;;;;;;;;;8.75;7.50;;;;;18.86;37.54;100872.88;5060348;28;45422;-58
2021/06/01 07:04:53;;;;;;;;;8.00;7.00;;;;;18.89;37.78;100881.53;5060403;28;45236;-58
2021/06/01 07:07:18;;;;;;;;;8.00;6.25;;;;;18.97;37.79;100881.25;5058733;28;46043;-58
2021/06/01 07:09:44;;;;;;;;;8.00;8.00;;;;;18.99;37.53;100872.25;5067229;28;45275;-59
2021/06/01 07:12:09;;;;;;;;;9.25;7.00;;;;;19.09;37.42;100869.97;5064615;27;45428;-57
2021/06/01 07:14:58;;;;;;;;;6.25;6.00;;;;;19.17;37.10;100875.81;5072361;27;45384;-57
2021/06/01 07:17:24;;;;;;;;;7.25;5.75;;;;;19.22;37.01;100877.38;5056715;28;45533;-57
2021/06/01 07:19:53;;;;;;;;;8.50;6.25;;;;;19.26;36.55;100863.84;5060046;28;45370;-58
2021/06/01 07:22:18;;;;;;;;;10.00;8.50;;;;;19.35;37.29;100854.53;5060015;28;45293;-59
2021/06/01 07:24:44;;;;;;;;;9.25;7.75;;;;;19.42;37.09;100855.97;5060139;28;45228;-57
2021/06/01 07:27:09;;;;;;;;;8.75;6.75;;;;;19.46;36.74;100849.56;5077901;28;45138;-57
2021/06/01 07:29:34;;;;;;;;;7.75;7.75;;;;;19.56;36.74;100857.06;5079845;27;45322;-57
2021/06/01 07:32:00;;;;;;;;;9.50;7.00;;;;;19.62;36.81;100846.09;5062025;27;45216;-57
2021/06/01 07:34:25;;;;;;;;;10.00;6.00;;;;;19.70;36.49;100848.38;5075684;27;45486;-58
2021/06/01 07:36:50;;;;;;;;;10.00;8.75;;;;;19.77;37.13;100849.81;5075291;27;45360;-58
2021/06/01 07:39:16;;;;;;;;;5.75;5.00;;;;;19.83;36.55;100838.00;5059881;28;45374;-58
2021/06/01 07:41:41;;;;;;;;;8.50;7.25;;;;;19.89;36.25;100843.03;5073943;28;45430;-58
2021/06/01 07:44:07;;;;;;;;;7.50;6.50;;;;;19.91;35.99;100842.00;5059855;28;45333;-58
2021/06/01 07:46:32;;;;;;;;;7.50;5.50;;;;;20.02;36.52;100852.09;5059665;28;46270;-58
2021/06/01 07:48:58;;;;;;;;;7.75;7.75;;;;;20.10;36.24;100851.69;5075373;28;45407;-58
2021/06/01 07:51:30;;;;;;;;;6.75;6.75;;;;;20.17;35.94;100849.59;5059691;28;45396;-58
2021/06/01 07:54:03;;;;;;;;;8.75;6.50;;;;;20.24;36.55;100849.16;5059480;28;45383;-58
2021/06/01 07:56:29;;;;;;;;;9.25;6.75;;;;;20.33;36.04;100850.50;5079852;27;46193;-59
2021/06/01 07:58:55;;;;;;;;;6.00;6.00;;;;;20.41;36.13;100850.91;5065234;27;45244;-59
2021/06/01 08:01:20;;;;;;;;;8.25;7.00;;;;;20.48;35.92;100856.81;5061662;28;45398;-59
2021/06/01 08:03:46;;;;;;;;;8.50;7.50;;;;;20.55;35.70;100846.66;5062962;28;45453;-59
2021/06/01 08:06:11;;;;;;;;;8.50;8.50;;;;;20.59;35.60;100843.75;5062978;28;47052;-59
2021/06/01 08:08:37;;;;;;;;;9.00;7.25;;;;;20.67;35.39;100835.31;5077304;28;45334;-58
2021/06/01 08:11:03;;;;;;;;;9.50;6.25;;;;;20.73;35.91;100829.66;5077731;27;45398;-59
2021/06/01 08:13:30;;;;;;;;;7.50;6.75;;;;;20.84;36.15;100823.72;5074693;28;45317;-58
2021/06/01 08:15:57;;;;;;;;;7.75;7.25;;;;;20.93;35.80;100831.22;5063872;27;46143;-59
2021/06/01 08:18:25;;;;;;;;;7.00;7.00;;;;;21.02;35.29;100820.94;5062780;28;45247;-59
2021/06/01 08:21:13;;;;;;;;;11.00;10.25;;;;;21.10;35.28;100822.22;5062719;28;45349;-59
2021/06/01 08:23:39;;;;;;;;;8.50;8.25;;;;;21.20;35.31;100811.03;5062635;28;45495;-59
2021/06/01 08:26:05;;;;;;;;;5.00;5.00;;;;;21.28;35.47;100800.75;5062637;28;46308;-59
2021/06/01 08:28:33;;;;;;;;;7.00;7.00;;;;;21.36;35.61;100800.31;5072709;28;45250;-59
2021/06/01 08:30:58;;;;;;;;;9.25;8.50;;;;;21.45;36.22;100798.91;5073078;27;45140;-59
2021/06/01 08:33:23;;;;;;;;;8.75;6.50;;;;;21.54;35.81;100801.03;5062507;28;45457;-59
2021/06/01 08:35:49;;;;;;;;;8.75;6.75;;;;;21.61;35.85;100802.44;5062453;28;45265;-59
2021/06/01 08:38:17;;;;;;;;;11.75;9.25;;;;;21.71;35.31;100802.72;5065663;28;45304;-60
2021/06/01 08:40:48;;;;;;;;;29.25;27.75;;;;;21.78;36.25;100804.06;5081797;28;45327;-59
2021/06/01 08:43:26;;;;;;;;;14.25;13.75;;;;;21.86;35.90;100795.59;5062780;28;45856;-59
2021/06/01 08:45:55;;;;;;;;;8.50;8.00;;;;;21.95;35.50;100788.81;5062394;28;45995;-59
2021/06/01 08:48:21;;;;;;;;;6.00;6.00;;;;;22.03;35.90;100795.41;5068099;28;45331;-59
2021/06/01 08:50:49;;;;;;;;;6.75;5.75;;;;;22.11;36.01;100783.38;5068990;27;45351;-59
2021/06/01 08:53:16;;;;;;;;;7.25;7.25;;;;;22.23;35.82;100796.00;5082708;28;45452;-59
2021/06/01 08:55:42;;;;;;;;;8.50;8.50;;;;;22.36;35.39;100788.94;5068010;27;46046;-59
2021/06/01 08:58:12;;;;;;;;;10.25;8.25;;;;;22.46;35.56;100785.69;5062090;28;45280;-59
2021/06/01 09:00:38;;;;;;;;;7.00;7.00;;;;;22.53;35.73;100785.19;5062258;28;45184;-59
2021/06/01 09:03:24;;;;;;;;;6.75;6.00;;;;;22.63;34.65;100787.28;5062374;28;45239;-59
2021/06/01 09:06:10;;;;;;;;;6.25;6.25;;;;;22.67;34.70;100781.63;5062055;28;47188;-59
2021/06/01 09:22:34;;;;;;;;;9.00;7.00;;;;;23.17;34.28;100773.09;5063916;28;45247;-59
2021/06/01 09:25:20;;;;;;;;;10.50;7.50;;;;;23.30;34.48;100768.63;5077050;27;45373;-58
2021/06/01 09:27:54;;;;;;;;;7.25;5.75;;;;;23.43;33.88;100765.13;5065758;28;46176;-58
2021/06/01 09:30:38;;;;;;;;;7.50;7.50;;;;;23.54;33.78;100762.56;5077020;27;45494;-58
2021/06/01 09:33:06;;;;;;;;;6.25;6.25;;;;;23.64;33.63;100769.00;5061815;28;45307;-59
2021/06/01 09:35:57;;;;;;;;;5.75;5.25;;;;;23.75;33.27;100770.06;5060435;27;45250;-59
2021/06/01 09:38:35;;;;;;;;;6.00;6.00;;;;;23.85;33.16;100765.81;5061620;28;45353;-59
2021/06/01 09:41:04;;;;;;;;;7.50;7.25;;;;;23.94;32.88;100764.34;5061998;28;45180;-59
2021/06/01 09:43:29;;;;;;;;;6.25;6.25;;;;;24.03;32.71;100763.69;5068608;28;45385;-58
2021/06/01 09:45:54;;;;;;;;;9.25;8.25;;;;;24.14;33.27;100757.56;5067873;27;45288;-59
2021/06/01 09:48:25;;;;;;;;;11.00;6.50;;;;;24.25;32.71;100768.38;5061795;28;45519;-59
2021/06/01 09:50:58;;;;;;;;;5.25;5.25;;;;;24.37;32.14;100761.25;5061515;28;45291;-59
2021/06/01 09:53:29;;;;;;;;;8.00;7.50;;;;;24.47;32.26;100756.09;5061296;28;45390;-59
2021/06/01 09:55:56;;;;;;;;;7.00;7.00;;;;;24.57;31.66;100764.34;5077800;28;45566;-59
2021/06/01 09:58:28;;;;;;;;;7.25;7.25;;;;;24.69;31.66;100770.66;5070894;27;46278;-60
2021/06/01 10:00:55;;;;;;;;;7.50;7.25;;;;;24.79;31.53;100753.75;5061257;28;45434;-60
2021/06/01 10:03:23;;;;;;;;;8.25;7.00;;;;;24.90;31.64;100763.69;5061365;28;45378;-60
2021/06/01 10:05:55;;;;;;;;;5.50;5.50;;;;;25.02;31.55;100756.56;5061095;28;45516;-59
2021/06/01 10:08:25;;;;;;;;;6.00;6.00;;;;;25.16;31.17;100758.22;5059841;28;47382;-58
2021/06/01 10:11:04;;;;;;;;;8.50;8.50;;;;;25.29;31.35;100764.34;5073245;28;45234;-60
2021/06/01 10:13:34;;;;;;;;;19.25;15.00;;;;;25.43;30.41;100751.72;5073269;28;45463;-59
2021/06/01 10:16:02;;;;;;;;;11.75;9.75;;;;;25.56;31.20;100748.94;5060042;28;45284;-59
2021/06/01 10:18:30;;;;;;;;;8.75;8.75;;;;;25.68;30.71;100752.53;5060778;28;46132;-58
2021/06/01 10:21:02;;;;;;;;;7.25;6.00;;;;;25.78;30.80;100737.34;5068087;28;45477;-60
2021/06/01 10:23:40;;;;;;;;;8.50;7.25;;;;;25.90;29.43;100738.22;5066026;27;45360;-60
2021/06/01 10:26:11;;;;;;;;;15.75;15.75;;;;;26.06;29.67;100732.50;5060906;28;45437;-59
2021/06/01 10:28:42;;;;;;;;;10.75;9.75;;;;;26.23;29.53;100717.69;5071725;28;45327;-59
2021/06/01 10:31:13;;;;;;;;;17.00;11.75;;;;;26.54;28.80;100731.34;5084900;27;45432;-59
2021/06/01 10:33:40;;;;;;;;;37.25;33.50;;;;;27.04;28.49;100723.63;5074355;28;45226;-59
2021/06/01 10:53:11;;;;;;;;;7.25;6.75;;;;;50.18;10.63;100734.66;5080800;28;45248;-59
2021/06/01 10:55:48;;;;;;;;;8.00;8.00;;;;;52.76;9.26;100720.59;5082910;27;45827;-61
2021/06/01 10:58:14;;;;;;;;;5.50;4.50;;;;;55.73;7.44;100725.47;5060087;28;45345;-61
2021/06/01 11:03:10;;;;;;;;;5.75;5.75;;;;;60.29;4.71;100722.78;5057947;28;45458;-60
2021/06/01 11:05:54;;;;;;;;;6.50;6.50;;;;;61.94;4.32;100724.47;5071886;28;45426;-61
2021/06/01 11:08:45;;;;;;;;;6.00;4.50;;;;;63.42;2.83;100727.16;5074819;28;45437;-61
2021/06/01 11:11:23;;;;;;;;;5.00;3.75;;;;;64.84;2.31;100719.03;5072421;28;47213;-60
2021/06/01 11:13:58;;;;;;;;;6.25;5.75;;;;;66.15;2.46;100724.25;5073360;28;45255;-60
2021/06/01 11:16:24;;;;;;;;;5.25;5.00;;;;;66.85;1.23;100712.47;5060298;28;45397;-60
2021/06/01 11:19:01;;;;;;;;;10.25;10.25;;;;;67.62;0.77;100713.09;5060197;28;45463;-60
2021/06/01 11:35:28;;;;;;;;;14.50;14.50;;;;;52.90;4.56;100644.91;5059856;27;45327;-59
2021/06/01 11:38:59;;;;;;;;;5.75;5.75;;;;;49.80;5.62;100632.97;5060223;28;45377;-59
2021/06/01 11:41:04;;;;;;;;;7.25;6.00;;;;;46.50;7.23;100617.34;5055269;28;45393;-60
2021/06/01 11:43:30;;;;;;;;;33.00;31.00;;;;;44.25;8.02;100637.03;5059255;28;46318;-61
2021/06/01 11:46:24;;;;;;;;;12.50;12.50;;;;;42.36;9.49;100636.09;5060040;28;45472;-60
2021/06/01 11:51:25;;;;;;;;;8.25;7.00;;;;;39.30;11.38;100633.75;5062011;28;45333;-61
2021/06/01 11:54:04;;;;;;;;;4.00;4.00;;;;;38.20;11.91;100629.41;5059570;28;47177;-60
2021/06/01 11:57:10;;;;;;;;;3.50;3.50;;;;;37.18;12.78;100627.19;5059531;28;45340;-61
2021/06/01 12:03:01;;;;;;;;;4.00;4.00;;;;;35.28;13.91;100631.78;5063123;28;45378;-60
2021/06/01 12:18:41;;;;;;;;;4.50;3.25;;;;;32.49;17.13;100635.50;5059314;28;45346;-60
2021/06/01 12:21:20;;;;;;;;;5.50;5.00;;;;;32.37;17.58;100627.69;5074647;28;45322;-60
2021/06/01 12:23:57;;;;;;;;;5.00;4.25;;;;;32.28;17.85;100633.25;5057778;28;45284;-60
2021/06/01 12:31:53;;;;;;;;;5.00;5.00;;;;;31.90;18.02;100642.66;5062356;28;45339;-60
2021/06/01 12:34:33;;;;;;;;;5.25;5.25;;;;;31.80;18.76;100635.63;5059241;28;45306;-60
2021/06/01 13:39:10;;;;;;;;;3.75;3.00;;;;;61.75;3.16;100632.31;5071037;28;45245;-62
2021/06/01 13:47:09;;;;;;;;;2.75;2.75;;;;;64.14;2.40;100627.50;5061835;28;45379;-62
2021/06/01 13:49:38;;;;;;;;;2.50;2.50;;;;;64.21;1.85;100624.69;5061476;28;45317;-62
2021/06/01 13:57:34;;;;;;;;;2.00;2.00;;;;;63.83;1.59;100618.19;5061349;28;45291;-62
2021/06/01 15:22:48;;;;;;;;;9.67;8.00;;;;;63.20;1.87;100543.75;5061376;28;45677;-61
2021/06/01 16:11:18;;;;;;;;;5.00;5.00;;;;;60.44;2.19;100502.03;5059647;28;45259;-60
2021/06/01 16:11:20;;;;;;;;;6.25;6.25;;;;;59.81;3.19;100501.63;5059631;28;45146;-61
2021/06/01 16:23:12;;;;;;;;;6.00;5.00;;;;;58.21;3.52;100471.63;5069553;28;45385;-64